NCAR-RAP Real-Time Weather Data

Output produced by METARs form (08 May 2021  01:45 UTC)
found at http://weather.rap.ucar.edu/surface/
 
KP68 080053Z AUTO 31016G26KT 20/M07 A2993 RMK AO1 PK WND 30027/0031 SLP084 T02001067
KP68 072353Z AUTO 33005KT 21/M02 A2992 RMK AO1 SLP079 T02061022 10217 20156 56022
KP68 072253Z AUTO 26008KT 240V310 21/M02 A2993 RMK AO1 PK WND 27030/2200 SLP079 T02111017
KP68 072153Z AUTO 29015G21KT 20/M03 A2996 RMK AO1 SLP088 T02001028
KP68 072053Z AUTO 23013G21KT 17/M01 A3000 RMK AO1 SLP109 T01721011 58002
KP68 071953Z AUTO 28007KT 18/00 A3002 RMK AO1 WSHFT 1850 SLP106 T01780000
KP68 071907Z AUTO 30015G21KT 17/M01 A3001 RMK AO1 WSHFT 1850 T01671011
KP68 071853Z AUTO 31014G21KT 18/M01 A3001 RMK AO1 SLP094 T01781011
KP68 071753Z AUTO 02008KT 18/M02 A3001 RMK AO1 SLP090 T01831017 10200 20022 58008
KP68 071653Z AUTO 35010KT 18/M02 A3002 RMK AO1 SLP101 T01831022
KP68 071553Z AUTO 03008KT 16/M02 A3004 RMK AO1 SLP106 T01611022
KP68 071453Z AUTO VRB03KT 14/M02 A3004 RMK AO1 SLP100 T01391022 50004
KP68 071353Z AUTO 00000KT 09/M03 A3004 RMK AO1 SLP103 T00891028
KP68 071253Z AUTO 20005KT 03/M05 A3002 RMK AO1 SLP105 T00331050